sensor_id;sensor_type;location;lat;lon;timestamp;P1;durP1;ratioP1;P2;durP2;ratioP2
12042;SDS011;6082;49.306;12.862;2023-04-01T00:01:47;0.50;;;0.43;;
12042;SDS011;6082;49.306;12.862;2023-04-01T00:04:13;2.43;;;0.77;;
12042;SDS011;6082;49.306;12.862;2023-04-01T00:06:40;1.53;;;0.73;;
12042;SDS011;6082;49.306;12.862;2023-04-01T00:09:06;0.67;;;0.43;;
12042;SDS011;6082;49.306;12.862;2023-04-01T00:11:33;1.40;;;0.60;;
12042;SDS011;6082;49.306;12.862;2023-04-01T00:13:59;4.47;;;0.70;;
12042;SDS011;6082;49.306;12.862;2023-04-01T00:16:25;0.50;;;0.50;;
12042;SDS011;6082;49.306;12.862;2023-04-01T00:18:51;3.30;;;0.50;;
12042;SDS011;6082;49.306;12.862;2023-04-01T00:21:18;1.30;;;0.40;;
12042;SDS011;6082;49.306;12.862;2023-04-01T00:23:45;2.10;;;0.60;;
12042;SDS011;6082;49.306;12.862;2023-04-01T00:26:11;0.50;;;0.50;;
12042;SDS011;6082;49.306;12.862;2023-04-01T00:28:39;1.33;;;0.63;;
12042;SDS011;6082;49.306;12.862;2023-04-01T00:31:06;2.40;;;0.60;;
12042;SDS011;6082;49.306;12.862;2023-04-01T00:33:32;3.13;;;0.50;;
12042;SDS011;6082;49.306;12.862;2023-04-01T00:36:18;1.23;;;0.60;;
12042;SDS011;6082;49.306;12.862;2023-04-01T00:38:44;2.17;;;0.70;;
12042;SDS011;6082;49.306;12.862;2023-04-01T00:41:12;2.83;;;0.67;;
12042;SDS011;6082;49.306;12.862;2023-04-01T00:43:40;1.20;;;0.60;;
12042;SDS011;6082;49.306;12.862;2023-04-01T00:46:06;1.50;;;0.40;;
12042;SDS011;6082;49.306;12.862;2023-04-01T00:48:33;2.13;;;0.50;;
12042;SDS011;6082;49.306;12.862;2023-04-01T00:51:07;2.47;;;0.77;;
12042;SDS011;6082;49.306;12.862;2023-04-01T00:53:36;2.60;;;0.63;;
12042;SDS011;6082;49.306;12.862;2023-04-01T00:58:36;1.93;;;0.80;;
12042;SDS011;6082;49.306;12.862;2023-04-01T01:01:04;2.43;;;0.83;;
12042;SDS011;6082;49.306;12.862;2023-04-01T01:03:31;0.93;;;0.80;;
12042;SDS011;6082;49.306;12.862;2023-04-01T01:06:07;0.77;;;0.50;;
12042;SDS011;6082;49.306;12.862;2023-04-01T01:11:22;1.80;;;0.83;;
12042;SDS011;6082;49.306;12.862;2023-04-01T01:16:34;0.73;;;0.70;;
12042;SDS011;6082;49.306;12.862;2023-04-01T01:32:07;1.90;;;0.87;;
12042;SDS011;6082;49.306;12.862;2023-04-01T01:37:28;0.73;;;0.60;;
12042;SDS011;6082;49.306;12.862;2023-04-01T01:39:56;0.90;;;0.50;;
12042;SDS011;6082;49.306;12.862;2023-04-01T01:42:24;1.10;;;0.50;;
12042;SDS011;6082;49.306;12.862;2023-04-01T01:44:51;0.77;;;0.43;;
12042;SDS011;6082;49.306;12.862;2023-04-01T01:47:17;2.87;;;0.70;;
12042;SDS011;6082;49.306;12.862;2023-04-01T01:49:44;1.23;;;0.43;;
12042;SDS011;6082;49.306;12.862;2023-04-01T01:52:12;0.60;;;0.60;;
12042;SDS011;6082;49.306;12.862;2023-04-01T01:54:48;0.30;;;0.30;;
12042;SDS011;6082;49.306;12.862;2023-04-01T01:57:15;0.50;;;0.40;;
12042;SDS011;6082;49.306;12.862;2023-04-01T01:59:42;3.27;;;0.70;;
12042;SDS011;6082;49.306;12.862;2023-04-01T02:02:09;0.40;;;0.40;;
12042;SDS011;6082;49.306;12.862;2023-04-01T02:04:37;0.40;;;0.40;;
12042;SDS011;6082;49.306;12.862;2023-04-01T02:07:07;2.07;;;0.70;;
12042;SDS011;6082;49.306;12.862;2023-04-01T02:09:36;2.07;;;0.40;;
12042;SDS011;6082;49.306;12.862;2023-04-01T02:12:04;2.27;;;0.50;;
12042;SDS011;6082;49.306;12.862;2023-04-01T02:17:06;2.73;;;0.70;;
12042;SDS011;6082;49.306;12.862;2023-04-01T02:19:37;0.90;;;0.40;;
12042;SDS011;6082;49.306;12.862;2023-04-01T02:22:05;1.80;;;0.57;;
12042;SDS011;6082;49.306;12.862;2023-04-01T02:24:34;1.47;;;0.70;;
12042;SDS011;6082;49.306;12.862;2023-04-01T02:27:01;1.10;;;0.50;;
12042;SDS011;6082;49.306;12.862;2023-04-01T02:29:27;0.57;;;0.40;;
12042;SDS011;6082;49.306;12.862;2023-04-01T02:31:53;0.40;;;0.40;;
12042;SDS011;6082;49.306;12.862;2023-04-01T02:34:20;0.50;;;0.30;;
12042;SDS011;6082;49.306;12.862;2023-04-01T02:36:47;2.97;;;0.57;;
12042;SDS011;6082;49.306;12.862;2023-04-01T02:39:14;1.30;;;0.40;;
12042;SDS011;6082;49.306;12.862;2023-04-01T02:41:41;1.53;;;0.60;;
12042;SDS011;6082;49.306;12.862;2023-04-01T02:44:09;0.50;;;0.50;;
12042;SDS011;6082;49.306;12.862;2023-04-01T02:46:35;1.50;;;0.40;;
12042;SDS011;6082;49.306;12.862;2023-04-01T02:49:01;0.87;;;0.53;;
12042;SDS011;6082;49.306;12.862;2023-04-01T02:51:27;0.40;;;0.40;;
12042;SDS011;6082;49.306;12.862;2023-04-01T02:53:53;0.57;;;0.50;;
12042;SDS011;6082;49.306;12.862;2023-04-01T02:56:19;0.73;;;0.37;;
12042;SDS011;6082;49.306;12.862;2023-04-01T02:58:46;1.00;;;0.60;;
12042;SDS011;6082;49.306;12.862;2023-04-01T03:01:12;0.30;;;0.30;;
12042;SDS011;6082;49.306;12.862;2023-04-01T03:03:38;0.40;;;0.30;;
12042;SDS011;6082;49.306;12.862;2023-04-01T03:06:05;0.93;;;0.50;;
12042;SDS011;6082;49.306;12.862;2023-04-01T03:08:34;1.50;;;0.37;;
12042;SDS011;6082;49.306;12.862;2023-04-01T03:11:01;0.90;;;0.70;;
12042;SDS011;6082;49.306;12.862;2023-04-01T03:13:27;1.23;;;0.50;;
12042;SDS011;6082;49.306;12.862;2023-04-01T03:15:53;1.97;;;0.77;;
12042;SDS011;6082;49.306;12.862;2023-04-01T03:18:19;0.33;;;0.33;;
12042;SDS011;6082;49.306;12.862;2023-04-01T03:20:45;0.90;;;0.50;;
12042;SDS011;6082;49.306;12.862;2023-04-01T03:23:11;1.17;;;0.60;;
12042;SDS011;6082;49.306;12.862;2023-04-01T03:25:37;1.33;;;0.50;;
12042;SDS011;6082;49.306;12.862;2023-04-01T03:28:04;0.30;;;0.30;;
12042;SDS011;6082;49.306;12.862;2023-04-01T03:30:30;0.37;;;0.37;;
12042;SDS011;6082;49.306;12.862;2023-04-01T03:32:57;0.60;;;0.40;;
12042;SDS011;6082;49.306;12.862;2023-04-01T03:35:24;2.33;;;0.53;;
12042;SDS011;6082;49.306;12.862;2023-04-01T03:37:51;2.43;;;0.40;;
12042;SDS011;6082;49.306;12.862;2023-04-01T03:40:17;0.50;;;0.50;;
12042;SDS011;6082;49.306;12.862;2023-04-01T03:42:43;1.03;;;0.80;;
12042;SDS011;6082;49.306;12.862;2023-04-01T03:45:11;2.17;;;1.10;;
12042;SDS011;6082;49.306;12.862;2023-04-01T03:47:37;2.50;;;1.20;;
12042;SDS011;6082;49.306;12.862;2023-04-01T03:50:04;4.50;;;0.93;;
12042;SDS011;6082;49.306;12.862;2023-04-01T03:52:31;1.27;;;0.70;;
12042;SDS011;6082;49.306;12.862;2023-04-01T03:54:57;1.27;;;0.60;;
12042;SDS011;6082;49.306;12.862;2023-04-01T03:57:23;1.10;;;0.50;;
12042;SDS011;6082;49.306;12.862;2023-04-01T03:59:49;1.23;;;0.57;;
12042;SDS011;6082;49.306;12.862;2023-04-01T04:02:15;1.60;;;0.50;;
12042;SDS011;6082;49.306;12.862;2023-04-01T04:04:44;0.40;;;0.40;;
12042;SDS011;6082;49.306;12.862;2023-04-01T04:07:11;1.20;;;0.60;;
12042;SDS011;6082;49.306;12.862;2023-04-01T04:09:37;1.17;;;0.37;;
12042;SDS011;6082;49.306;12.862;2023-04-01T04:12:03;0.37;;;0.30;;
12042;SDS011;6082;49.306;12.862;2023-04-01T04:14:30;1.33;;;0.40;;
12042;SDS011;6082;49.306;12.862;2023-04-01T04:16:57;1.10;;;0.50;;
12042;SDS011;6082;49.306;12.862;2023-04-01T04:19:23;0.50;;;0.50;;
12042;SDS011;6082;49.306;12.862;2023-04-01T04:21:49;0.57;;;0.50;;
12042;SDS011;6082;49.306;12.862;2023-04-01T04:24:15;0.50;;;0.50;;
12042;SDS011;6082;49.306;12.862;2023-04-01T04:26:41;0.87;;;0.53;;
12042;SDS011;6082;49.306;12.862;2023-04-01T04:29:07;1.37;;;0.67;;
12042;SDS011;6082;49.306;12.862;2023-04-01T04:31:33;1.77;;;0.90;;
12042;SDS011;6082;49.306;12.862;2023-04-01T04:34:00;0.47;;;0.40;;
12042;SDS011;6082;49.306;12.862;2023-04-01T04:36:26;0.50;;;0.50;;
12042;SDS011;6082;49.306;12.862;2023-04-01T04:38:52;1.93;;;0.80;;
12042;SDS011;6082;49.306;12.862;2023-04-01T04:41:19;2.27;;;0.50;;
12042;SDS011;6082;49.306;12.862;2023-04-01T04:43:54;0.70;;;0.50;;
12042;SDS011;6082;49.306;12.862;2023-04-01T04:46:21;2.77;;;0.70;;
12042;SDS011;6082;49.306;12.862;2023-04-01T04:48:48;2.53;;;0.50;;
12042;SDS011;6082;49.306;12.862;2023-04-01T04:51:17;0.73;;;0.30;;
12042;SDS011;6082;49.306;12.862;2023-04-01T04:53:44;1.27;;;0.40;;
12042;SDS011;6082;49.306;12.862;2023-04-01T04:56:10;1.43;;;0.67;;
12042;SDS011;6082;49.306;12.862;2023-04-01T04:58:37;0.40;;;0.40;;
12042;SDS011;6082;49.306;12.862;2023-04-01T05:01:07;0.50;;;0.30;;
12042;SDS011;6082;49.306;12.862;2023-04-01T05:03:34;1.07;;;0.50;;
12042;SDS011;6082;49.306;12.862;2023-04-01T05:06:00;0.60;;;0.50;;
12042;SDS011;6082;49.306;12.862;2023-04-01T05:08:26;1.67;;;0.73;;
12042;SDS011;6082;49.306;12.862;2023-04-01T05:10:52;1.23;;;0.60;;
12042;SDS011;6082;49.306;12.862;2023-04-01T05:13:18;1.77;;;0.60;;
12042;SDS011;6082;49.306;12.862;2023-04-01T05:15:44;0.77;;;0.70;;
12042;SDS011;6082;49.306;12.862;2023-04-01T05:18:10;0.60;;;0.50;;
12042;SDS011;6082;49.306;12.862;2023-04-01T05:20:36;1.00;;;0.70;;
12042;SDS011;6082;49.306;12.862;2023-04-01T05:23:02;1.80;;;0.60;;
12042;SDS011;6082;49.306;12.862;2023-04-01T05:25:32;2.73;;;0.63;;
12042;SDS011;6082;49.306;12.862;2023-04-01T05:27:58;1.50;;;0.60;;
12042;SDS011;6082;49.306;12.862;2023-04-01T05:30:24;0.90;;;0.80;;
12042;SDS011;6082;49.306;12.862;2023-04-01T05:32:50;2.70;;;1.10;;
12042;SDS011;6082;49.306;12.862;2023-04-01T05:35:16;2.13;;;0.60;;
12042;SDS011;6082;49.306;12.862;2023-04-01T05:37:42;2.90;;;0.90;;
12042;SDS011;6082;49.306;12.862;2023-04-01T05:40:08;1.07;;;0.77;;
12042;SDS011;6082;49.306;12.862;2023-04-01T05:42:35;0.97;;;0.50;;
12042;SDS011;6082;49.306;12.862;2023-04-01T05:45:01;1.77;;;0.50;;
12042;SDS011;6082;49.306;12.862;2023-04-01T05:47:27;0.77;;;0.47;;
12042;SDS011;6082;49.306;12.862;2023-04-01T05:49:53;1.47;;;0.43;;
12042;SDS011;6082;49.306;12.862;2023-04-01T05:52:20;0.50;;;0.50;;
12042;SDS011;6082;49.306;12.862;2023-04-01T05:54:46;0.90;;;0.50;;
12042;SDS011;6082;49.306;12.862;2023-04-01T05:57:12;1.80;;;0.67;;
12042;SDS011;6082;49.306;12.862;2023-04-01T05:59:38;1.00;;;0.70;;
12042;SDS011;6082;49.306;12.862;2023-04-01T06:02:04;1.87;;;0.70;;
12042;SDS011;6082;49.306;12.862;2023-04-01T06:04:32;1.30;;;1.00;;
12042;SDS011;6082;49.306;12.862;2023-04-01T06:09:29;2.03;;;1.20;;
12042;SDS011;6082;49.306;12.862;2023-04-01T06:12:01;3.30;;;1.40;;
12042;SDS011;6082;49.306;12.862;2023-04-01T06:27:24;2.27;;;0.50;;
12042;SDS011;6082;49.306;12.862;2023-04-01T06:43:25;0.83;;;0.50;;
12042;SDS011;6082;49.306;12.862;2023-04-01T06:56:08;1.77;;;0.43;;
12042;SDS011;6082;49.306;12.862;2023-04-01T06:58:39;1.70;;;0.50;;
12042;SDS011;6082;49.306;12.862;2023-04-01T07:01:09;0.83;;;0.60;;
12042;SDS011;6082;49.306;12.862;2023-04-01T07:03:37;0.90;;;0.53;;
12042;SDS011;6082;49.306;12.862;2023-04-01T07:06:08;1.20;;;0.40;;
12042;SDS011;6082;49.306;12.862;2023-04-01T07:08:36;0.70;;;0.40;;
12042;SDS011;6082;49.306;12.862;2023-04-01T07:11:04;1.33;;;0.60;;
12042;SDS011;6082;49.306;12.862;2023-04-01T07:16:34;0.80;;;0.60;;
12042;SDS011;6082;49.306;12.862;2023-04-01T07:21:50;1.70;;;0.53;;
12042;SDS011;6082;49.306;12.862;2023-04-01T07:24:22;0.40;;;0.40;;
12042;SDS011;6082;49.306;12.862;2023-04-01T07:26:52;0.83;;;0.50;;
12042;SDS011;6082;49.306;12.862;2023-04-01T07:29:19;0.60;;;0.50;;
12042;SDS011;6082;49.306;12.862;2023-04-01T07:45:08;1.40;;;0.70;;
12042;SDS011;6082;49.306;12.862;2023-04-01T07:47:41;0.40;;;0.40;;
12042;SDS011;6082;49.306;12.862;2023-04-01T07:52:48;2.10;;;0.40;;
12042;SDS011;6082;49.306;12.862;2023-04-01T07:55:18;0.80;;;0.60;;
12042;SDS011;6082;49.306;12.862;2023-04-01T08:00:24;0.80;;;0.40;;
12042;SDS011;6082;49.306;12.862;2023-04-01T08:03:16;0.40;;;0.37;;
12042;SDS011;6082;49.306;12.862;2023-04-01T08:05:59;1.40;;;0.40;;
12042;SDS011;6082;49.306;12.862;2023-04-01T08:10:54;0.33;;;0.33;;
12042;SDS011;6082;49.306;12.862;2023-04-01T08:21:24;1.50;;;0.40;;
12042;SDS011;6082;49.306;12.862;2023-04-01T08:23:52;0.50;;;0.50;;
12042;SDS011;6082;49.306;12.862;2023-04-01T08:28:52;1.30;;;0.67;;
12042;SDS011;6082;49.306;12.862;2023-04-01T08:31:30;0.50;;;0.50;;
12042;SDS011;6082;49.306;12.862;2023-04-01T08:33:58;1.03;;;0.67;;
12042;SDS011;6082;49.306;12.862;2023-04-01T08:36:37;0.40;;;0.40;;
12042;SDS011;6082;49.306;12.862;2023-04-01T08:39:08;1.00;;;0.40;;
12042;SDS011;6082;49.306;12.862;2023-04-01T08:50:32;1.87;;;0.50;;
12042;SDS011;6082;49.306;12.862;2023-04-01T08:55:38;1.37;;;0.63;;
12042;SDS011;6082;49.306;12.862;2023-04-01T09:00:51;0.70;;;0.60;;
12042;SDS011;6082;49.306;12.862;2023-04-01T09:03:22;1.00;;;0.67;;
12042;SDS011;6082;49.306;12.862;2023-04-01T09:27:19;1.63;;;1.00;;
12042;SDS011;6082;49.306;12.862;2023-04-01T09:30:19;2.33;;;0.83;;
12042;SDS011;6082;49.306;12.862;2023-04-01T09:35:24;1.90;;;0.67;;
12042;SDS011;6082;49.306;12.862;2023-04-01T09:45:46;1.43;;;0.57;;
12042;SDS011;6082;49.306;12.862;2023-04-01T10:10:22;1.20;;;1.10;;
12042;SDS011;6082;49.306;12.862;2023-04-01T10:13:00;1.83;;;0.93;;
12042;SDS011;6082;49.306;12.862;2023-04-01T10:15:49;0.73;;;0.53;;
12042;SDS011;6082;49.306;12.862;2023-04-01T10:18:36;1.40;;;1.00;;
12042;SDS011;6082;49.306;12.862;2023-04-01T10:26:39;3.33;;;1.50;;
12042;SDS011;6082;49.306;12.862;2023-04-01T11:00:15;5.30;;;3.80;;
12042;SDS011;6082;49.306;12.862;2023-04-01T11:13:14;0.63;;;0.63;;
12042;SDS011;6082;49.306;12.862;2023-04-01T11:21:16;0.90;;;0.70;;
12042;SDS011;6082;49.306;12.862;2023-04-01T11:36:25;0.90;;;0.40;;
12042;SDS011;6082;49.306;12.862;2023-04-01T11:41:30;0.63;;;0.40;;
12042;SDS011;6082;49.306;12.862;2023-04-01T11:44:17;0.30;;;0.30;;
12042;SDS011;6082;49.306;12.862;2023-04-01T11:55:21;0.30;;;0.30;;
12042;SDS011;6082;49.306;12.862;2023-04-01T11:58:06;0.50;;;0.50;;
12042;SDS011;6082;49.306;12.862;2023-04-01T12:00:51;1.13;;;0.37;;
12042;SDS011;6082;49.306;12.862;2023-04-01T12:19:04;1.30;;;0.47;;
12042;SDS011;6082;49.306;12.862;2023-04-01T12:31:54;0.73;;;0.73;;
12042;SDS011;6082;49.306;12.862;2023-04-01T12:52:15;0.97;;;0.87;;
12042;SDS011;6082;49.306;12.862;2023-04-01T12:55:00;1.30;;;1.00;;
12042;SDS011;6082;49.306;12.862;2023-04-01T12:57:43;0.70;;;0.63;;
12042;SDS011;6082;49.306;12.862;2023-04-01T13:13:34;0.40;;;0.40;;
12042;SDS011;6082;49.306;12.862;2023-04-01T13:23:52;0.90;;;0.90;;
12042;SDS011;6082;49.306;12.862;2023-04-01T13:36:19;0.60;;;0.60;;
12042;SDS011;6082;49.306;12.862;2023-04-01T13:38:57;0.90;;;0.70;;
12042;SDS011;6082;49.306;12.862;2023-04-01T13:44:05;0.43;;;0.40;;
12042;SDS011;6082;49.306;12.862;2023-04-01T13:46:36;0.60;;;0.60;;
12042;SDS011;6082;49.306;12.862;2023-04-01T13:52:02;0.50;;;0.40;;
12042;SDS011;6082;49.306;12.862;2023-04-01T13:59:40;0.67;;;0.67;;
12042;SDS011;6082;49.306;12.862;2023-04-01T14:02:20;0.60;;;0.43;;
12042;SDS011;6082;49.306;12.862;2023-04-01T14:12:15;2.97;;;2.13;;
12042;SDS011;6082;49.306;12.862;2023-04-01T14:29:58;2.43;;;1.27;;
12042;SDS011;6082;49.306;12.862;2023-04-01T14:35:17;5.03;;;2.87;;
12042;SDS011;6082;49.306;12.862;2023-04-01T14:50:17;6.67;;;4.10;;
12042;SDS011;6082;49.306;12.862;2023-04-01T14:53:11;8.33;;;5.37;;
12042;SDS011;6082;49.306;12.862;2023-04-01T15:03:17;3.47;;;2.50;;
12042;SDS011;6082;49.306;12.862;2023-04-01T15:08:30;1.93;;;1.63;;
12042;SDS011;6082;49.306;12.862;2023-04-01T15:11:16;2.03;;;1.83;;
12042;SDS011;6082;49.306;12.862;2023-04-01T15:16:34;1.77;;;1.30;;
12042;SDS011;6082;49.306;12.862;2023-04-01T15:19:21;2.13;;;1.77;;
12042;SDS011;6082;49.306;12.862;2023-04-01T16:01:42;2.47;;;1.70;;
12042;SDS011;6082;49.306;12.862;2023-04-01T16:06:58;3.23;;;2.47;;
12042;SDS011;6082;49.306;12.862;2023-04-01T16:12:09;1.83;;;1.23;;
12042;SDS011;6082;49.306;12.862;2023-04-01T16:14:44;3.43;;;2.47;;
12042;SDS011;6082;49.306;12.862;2023-04-01T16:22:17;2.20;;;1.60;;
12042;SDS011;6082;49.306;12.862;2023-04-01T16:24:53;2.40;;;1.00;;
12042;SDS011;6082;49.306;12.862;2023-04-01T16:37:37;0.70;;;0.70;;
12042;SDS011;6082;49.306;12.862;2023-04-01T16:42:56;0.80;;;0.80;;
12042;SDS011;6082;49.306;12.862;2023-04-01T16:45:33;1.47;;;0.83;;
12042;SDS011;6082;49.306;12.862;2023-04-01T16:48:14;0.80;;;0.63;;
12042;SDS011;6082;49.306;12.862;2023-04-01T16:58:37;1.90;;;1.10;;
12042;SDS011;6082;49.306;12.862;2023-04-01T17:01:12;0.80;;;0.80;;
12042;SDS011;6082;49.306;12.862;2023-04-01T17:03:40;1.10;;;0.73;;
12042;SDS011;6082;49.306;12.862;2023-04-01T17:34:55;1.10;;;1.00;;
12042;SDS011;6082;49.306;12.862;2023-04-01T17:39:57;3.97;;;1.47;;
12042;SDS011;6082;49.306;12.862;2023-04-01T17:42:40;1.30;;;1.03;;
12042;SDS011;6082;49.306;12.862;2023-04-01T17:50:28;3.00;;;1.40;;
12042;SDS011;6082;49.306;12.862;2023-04-01T17:52:59;2.03;;;1.50;;
12042;SDS011;6082;49.306;12.862;2023-04-01T17:55:46;1.70;;;1.20;;
12042;SDS011;6082;49.306;12.862;2023-04-01T17:58:17;1.60;;;1.17;;
12042;SDS011;6082;49.306;12.862;2023-04-01T18:08:30;1.13;;;0.87;;
12042;SDS011;6082;49.306;12.862;2023-04-01T18:26:37;2.80;;;1.60;;
12042;SDS011;6082;49.306;12.862;2023-04-01T18:31:45;1.63;;;1.40;;
12042;SDS011;6082;49.306;12.862;2023-04-01T18:36:59;1.47;;;1.27;;
12042;SDS011;6082;49.306;12.862;2023-04-01T18:39:37;3.23;;;1.17;;
12042;SDS011;6082;49.306;12.862;2023-04-01T18:42:14;1.63;;;1.20;;
12042;SDS011;6082;49.306;12.862;2023-04-01T18:44:45;1.40;;;1.30;;
12042;SDS011;6082;49.306;12.862;2023-04-01T18:52:27;7.70;;;4.40;;
12042;SDS011;6082;49.306;12.862;2023-04-01T18:57:38;10.47;;;5.67;;
12042;SDS011;6082;49.306;12.862;2023-04-01T19:00:22;8.20;;;5.30;;
12042;SDS011;6082;49.306;12.862;2023-04-01T19:07:53;3.77;;;2.80;;
12042;SDS011;6082;49.306;12.862;2023-04-01T19:10:26;2.53;;;2.10;;
12042;SDS011;6082;49.306;12.862;2023-04-01T19:13:02;6.10;;;2.70;;
12042;SDS011;6082;49.306;12.862;2023-04-01T19:20:51;1.20;;;1.00;;
12042;SDS011;6082;49.306;12.862;2023-04-01T19:23:47;1.07;;;0.83;;
12042;SDS011;6082;49.306;12.862;2023-04-01T19:26:25;1.00;;;0.63;;
12042;SDS011;6082;49.306;12.862;2023-04-01T19:42:05;0.73;;;0.70;;
12042;SDS011;6082;49.306;12.862;2023-04-01T19:44:58;1.03;;;0.90;;
12042;SDS011;6082;49.306;12.862;2023-04-01T19:52:49;1.20;;;1.03;;
12042;SDS011;6082;49.306;12.862;2023-04-01T19:57:46;1.57;;;1.00;;
12042;SDS011;6082;49.306;12.862;2023-04-01T20:08:44;0.73;;;0.73;;
12042;SDS011;6082;49.306;12.862;2023-04-01T20:13:33;2.20;;;0.80;;
12042;SDS011;6082;49.306;12.862;2023-04-01T20:16:03;2.10;;;0.93;;
12042;SDS011;6082;49.306;12.862;2023-04-01T20:23:43;0.67;;;0.67;;
12042;SDS011;6082;49.306;12.862;2023-04-01T20:26:12;0.80;;;0.73;;
12042;SDS011;6082;49.306;12.862;2023-04-01T20:28:43;0.70;;;0.70;;
12042;SDS011;6082;49.306;12.862;2023-04-01T20:31:24;1.33;;;0.57;;
12042;SDS011;6082;49.306;12.862;2023-04-01T20:36:21;1.67;;;0.80;;
12042;SDS011;6082;49.306;12.862;2023-04-01T20:50:11;1.00;;;0.90;;
12042;SDS011;6082;49.306;12.862;2023-04-01T20:52:36;1.30;;;1.10;;
12042;SDS011;6082;49.306;12.862;2023-04-01T21:00:23;1.20;;;1.10;;
12042;SDS011;6082;49.306;12.862;2023-04-01T21:08:53;1.20;;;1.10;;
12042;SDS011;6082;49.306;12.862;2023-04-01T21:13:37;1.37;;;1.20;;
12042;SDS011;6082;49.306;12.862;2023-04-01T21:18:43;1.47;;;1.10;;
12042;SDS011;6082;49.306;12.862;2023-04-01T21:21:16;2.00;;;1.10;;
12042;SDS011;6082;49.306;12.862;2023-04-01T21:28:58;3.27;;;2.10;;
12042;SDS011;6082;49.306;12.862;2023-04-01T21:31:34;3.10;;;1.60;;
12042;SDS011;6082;49.306;12.862;2023-04-01T22:00:32;0.60;;;0.60;;
12042;SDS011;6082;49.306;12.862;2023-04-01T22:06:19;0.70;;;0.70;;
12042;SDS011;6082;49.306;12.862;2023-04-01T22:19:00;2.87;;;0.60;;
12042;SDS011;6082;49.306;12.862;2023-04-01T22:21:41;1.47;;;0.70;;
12042;SDS011;6082;49.306;12.862;2023-04-01T22:32:18;0.60;;;0.53;;
12042;SDS011;6082;49.306;12.862;2023-04-01T22:34:57;0.93;;;0.70;;
12042;SDS011;6082;49.306;12.862;2023-04-01T22:40:27;1.30;;;0.77;;
12042;SDS011;6082;49.306;12.862;2023-04-01T22:43:01;2.00;;;1.30;;
12042;SDS011;6082;49.306;12.862;2023-04-01T22:48:17;1.00;;;0.80;;
12042;SDS011;6082;49.306;12.862;2023-04-01T22:53:32;0.80;;;0.80;;
12042;SDS011;6082;49.306;12.862;2023-04-01T22:56:05;0.90;;;0.70;;
12042;SDS011;6082;49.306;12.862;2023-04-01T22:58:40;1.20;;;0.83;;
12042;SDS011;6082;49.306;12.862;2023-04-01T23:01:07;1.00;;;0.73;;
12042;SDS011;6082;49.306;12.862;2023-04-01T23:03:38;0.73;;;0.73;;
12042;SDS011;6082;49.306;12.862;2023-04-01T23:06:06;1.23;;;0.90;;
12042;SDS011;6082;49.306;12.862;2023-04-01T23:11:25;1.10;;;1.00;;
12042;SDS011;6082;49.306;12.862;2023-04-01T23:16:28;1.53;;;0.83;;
12042;SDS011;6082;49.306;12.862;2023-04-01T23:21:35;1.27;;;0.87;;
12042;SDS011;6082;49.306;12.862;2023-04-01T23:24:27;1.80;;;0.90;;
12042;SDS011;6082;49.306;12.862;2023-04-01T23:26:59;0.90;;;0.90;;
12042;SDS011;6082;49.306;12.862;2023-04-01T23:29:26;0.93;;;0.80;;
12042;SDS011;6082;49.306;12.862;2023-04-01T23:31:59;1.10;;;0.90;;
12042;SDS011;6082;49.306;12.862;2023-04-01T23:34:32;2.70;;;1.40;;
12042;SDS011;6082;49.306;12.862;2023-04-01T23:37:08;1.57;;;1.00;;
12042;SDS011;6082;49.306;12.862;2023-04-01T23:39:37;2.47;;;1.27;;
12042;SDS011;6082;49.306;12.862;2023-04-01T23:42:12;1.17;;;1.07;;
12042;SDS011;6082;49.306;12.862;2023-04-01T23:44:39;0.80;;;0.70;;
12042;SDS011;6082;49.306;12.862;2023-04-01T23:47:06;0.80;;;0.73;;
12042;SDS011;6082;49.306;12.862;2023-04-01T23:49:42;1.00;;;0.90;;
12042;SDS011;6082;49.306;12.862;2023-04-01T23:52:11;1.10;;;0.67;;
12042;SDS011;6082;49.306;12.862;2023-04-01T23:54:48;1.23;;;0.70;;
12042;SDS011;6082;49.306;12.862;2023-04-01T23:57:16;1.13;;;0.80;;
12042;SDS011;6082;49.306;12.862;2023-04-01T23:59:43;0.90;;;0.67;;
